createdAt,value
2023-04-18T00:03:58.476Z,0
2023-04-18T00:18:54.170Z,0
2023-04-18T00:33:50.610Z,0
2023-04-18T00:48:46.461Z,0
2023-04-18T01:03:43.013Z,0
2023-04-18T01:18:39.119Z,0
2023-04-18T01:33:34.976Z,0
2023-04-18T01:48:30.542Z,0
2023-04-18T02:03:26.986Z,0
2023-04-18T02:18:22.842Z,0
2023-04-18T02:33:18.789Z,0
2023-04-18T02:48:14.922Z,0
2023-04-18T03:03:11.444Z,0
2023-04-18T03:18:07.746Z,0
2023-04-18T03:33:03.289Z,0
2023-04-18T03:47:59.164Z,0
2023-04-18T04:02:55.624Z,0.01
2023-04-18T04:17:52.114Z,0.02
2023-04-18T04:32:48.121Z,0.03
2023-04-18T04:47:44.613Z,0.03
2023-04-18T05:02:41.189Z,0.05
2023-04-18T05:17:37.883Z,0.06
2023-04-18T05:32:34.268Z,0.08
2023-04-18T05:47:31.036Z,0.09
2023-04-18T06:02:27.854Z,0.1
2023-04-18T06:17:24.568Z,0.1
2023-04-18T06:32:20.712Z,0.1
2023-04-18T06:47:16.822Z,0.1
2023-04-18T07:02:13.627Z,0.1
2023-04-18T07:17:10.262Z,0.11
2023-04-18T07:32:08.431Z,0.12
2023-04-18T07:47:03.788Z,0.15
2023-04-18T08:02:00.222Z,0.21
2023-04-18T08:16:57.374Z,0.21
2023-04-18T08:31:53.979Z,0.24
2023-04-18T08:46:50.553Z,0.24
2023-04-18T09:01:47.061Z,0.19
2023-04-18T09:16:43.779Z,0.17
2023-04-18T09:31:39.918Z,0.52
2023-04-18T09:46:37.204Z,0.38
2023-04-18T10:01:33.029Z,0.28
2023-04-18T10:16:29.606Z,0.21
2023-04-18T10:31:25.693Z,0.36
2023-04-18T10:46:31.530Z,0.26
2023-04-18T11:01:18.409Z,0.28
2023-04-18T11:16:14.059Z,0.26
2023-04-18T11:31:10.784Z,0.79
2023-04-18T11:46:07.660Z,0.57
2023-04-18T12:01:04.523Z,0.96
2023-04-18T12:16:01.443Z,2.02
2023-04-18T12:30:58.191Z,0.53
2023-04-18T12:45:54.486Z,0.72
2023-04-18T13:00:51.108Z,0.14
2023-04-18T13:15:46.814Z,0.2
2023-04-18T13:30:42.749Z,0.3
2023-04-18T13:45:38.562Z,0.58
2023-04-18T14:00:34.950Z,0.37
2023-04-18T14:15:31.521Z,0.5
2023-04-18T14:30:27.201Z,0.56
2023-04-18T14:45:23.545Z,0.44
2023-04-18T15:00:19.737Z,0.3
2023-04-18T15:15:16.679Z,0.67
2023-04-18T15:30:12.695Z,0.36
2023-04-18T15:45:09.144Z,0.2
2023-04-18T16:00:04.661Z,0.26
2023-04-18T16:15:00.813Z,0.26
2023-04-18T16:29:57.473Z,0.18
2023-04-18T16:44:53.332Z,0.15
2023-04-18T16:59:49.805Z,0.14
2023-04-18T17:14:45.690Z,0.11
2023-04-18T17:29:42.064Z,0.09
2023-04-18T17:44:37.199Z,0.07
2023-04-18T17:59:32.474Z,0.05
2023-04-18T18:14:28.141Z,0.03
2023-04-18T18:29:23.855Z,0.03
2023-04-18T18:44:20.275Z,0.02
2023-04-18T18:59:16.353Z,0
2023-04-18T19:14:12.032Z,0
2023-04-18T19:29:07.908Z,0.01
2023-04-18T19:44:04.143Z,0
2023-04-18T19:58:59.826Z,0
2023-04-18T20:13:55.796Z,0
2023-04-18T20:28:51.683Z,0
2023-04-18T20:43:48.229Z,0
2023-04-18T20:58:44.222Z,0
2023-04-18T21:13:40.410Z,0
2023-04-18T21:28:36.858Z,0
2023-04-18T21:43:32.727Z,0.01
2023-04-18T21:58:28.991Z,0
2023-04-18T22:13:25.042Z,0.01
2023-04-18T22:28:20.968Z,0
2023-04-18T22:43:17.248Z,0
2023-04-18T22:58:12.510Z,0
2023-04-18T23:13:08.676Z,0.01
2023-04-18T23:28:04.625Z,0
2023-04-18T23:43:00.786Z,0
2023-04-18T23:57:57.110Z,0
